createdAt,value
2023-04-20T00:01:59.734Z,9.25
2023-04-20T00:04:30.291Z,17.02
2023-04-20T00:07:02.356Z,9.45
2023-04-20T00:09:32.841Z,12.65
2023-04-20T00:12:03.354Z,13.10
2023-04-20T00:14:33.929Z,11.90
2023-04-20T00:17:04.453Z,12.13
2023-04-20T00:19:35.469Z,12.55
2023-04-20T00:22:07.700Z,10.98
2023-04-20T00:24:38.302Z,16.17
2023-04-20T00:27:09.099Z,8.90
2023-04-20T00:29:39.481Z,10.10
2023-04-20T00:32:10.549Z,13.05
2023-04-20T00:34:41.366Z,9.55
2023-04-20T00:37:14.047Z,9.82
2023-04-20T00:39:44.755Z,10.70
2023-04-20T00:42:15.502Z,9.77
2023-04-20T00:44:46.275Z,13.55
2023-04-20T00:47:16.722Z,14.68
2023-04-20T00:49:47.670Z,12.10
2023-04-20T00:52:20.172Z,8.90
2023-04-20T00:54:51.684Z,15.93
2023-04-20T00:57:24.982Z,13.77
2023-04-20T00:59:56.159Z,8.85
2023-04-20T01:02:27.136Z,12.40
2023-04-20T01:04:58.422Z,11.95
2023-04-20T01:07:31.409Z,10.43
2023-04-20T01:10:01.998Z,9.20
2023-04-20T01:12:32.762Z,7.43
2023-04-20T01:15:03.470Z,8.63
2023-04-20T01:17:34.227Z,9.60
2023-04-20T01:20:04.879Z,7.60
2023-04-20T01:22:37.062Z,11.15
2023-04-20T01:25:08.249Z,9.45
2023-04-20T01:27:39.010Z,12.38
2023-04-20T01:30:10.689Z,7.35
2023-04-20T01:32:41.458Z,13.85
2023-04-20T01:35:12.469Z,10.40
2023-04-20T01:37:45.167Z,10.70
2023-04-20T01:40:17.205Z,10.68
2023-04-20T01:42:48.573Z,11.27
2023-04-20T01:45:19.029Z,8.57
2023-04-20T01:47:49.562Z,8.50
2023-04-20T01:50:20.206Z,6.03
2023-04-20T01:52:52.489Z,7.75
2023-04-20T01:55:23.309Z,10.07
2023-04-20T01:57:53.904Z,11.18
2023-04-20T02:00:24.414Z,6.25
2023-04-20T02:02:55.126Z,8.70
2023-04-20T02:05:26.474Z,6.32
2023-04-20T02:07:58.744Z,8.60
2023-04-20T02:10:29.274Z,9.80
2023-04-20T02:12:59.941Z,5.40
2023-04-20T02:15:30.606Z,9.00
2023-04-20T02:18:01.135Z,5.95
2023-04-20T02:20:31.747Z,9.85
2023-04-20T02:25:51.188Z,10.98
2023-04-20T02:28:21.777Z,12.82
2023-04-20T02:30:52.192Z,6.97
2023-04-20T02:33:23.793Z,5.85
2023-04-20T02:35:54.253Z,9.00
2023-04-20T02:38:26.426Z,7.82
2023-04-20T02:40:56.893Z,8.60
2023-04-20T02:43:27.747Z,8.77
2023-04-20T02:45:58.311Z,8.20
2023-04-20T02:48:28.806Z,10.63
2023-04-20T02:50:59.388Z,9.55
2023-04-20T02:53:31.623Z,10.43
2023-04-20T02:56:02.162Z,11.82
2023-04-20T02:58:32.684Z,7.70
2023-04-20T03:01:03.819Z,15.50
2023-04-20T03:03:34.791Z,9.57
2023-04-20T03:06:05.387Z,11.25
2023-04-20T03:08:37.957Z,15.98
2023-04-20T03:11:08.498Z,15.95
2023-04-20T03:13:38.895Z,8.98
2023-04-20T03:16:09.744Z,11.07
2023-04-20T03:18:40.475Z,7.57
2023-04-20T03:21:13.618Z,6.82
2023-04-20T03:23:45.824Z,8.50
2023-04-20T03:26:16.292Z,8.93
2023-04-20T03:28:46.821Z,9.55
2023-04-20T03:31:17.401Z,11.52
2023-04-20T03:33:48.610Z,12.05
2023-04-20T03:36:19.675Z,10.77
2023-04-20T03:38:51.647Z,10.27
2023-04-20T03:41:22.169Z,9.07
2023-04-20T03:43:58.606Z,10.02
2023-04-20T03:46:29.325Z,13.98
2023-04-20T03:48:59.982Z,7.78
2023-04-20T03:51:30.694Z,12.80
2023-04-20T03:54:14.175Z,9.95
2023-04-20T03:56:45.500Z,16.15
2023-04-20T03:59:16.306Z,14.57
2023-04-20T04:01:47.164Z,9.93
2023-04-20T04:04:18.176Z,15.02
2023-04-20T04:06:48.967Z,14.93
2023-04-20T04:09:21.145Z,12.35
2023-04-20T04:11:51.683Z,10.82
2023-04-20T04:14:22.176Z,15.45
2023-04-20T04:16:52.894Z,17.73
2023-04-20T04:19:23.546Z,14.15
2023-04-20T04:21:54.008Z,11.80
2023-04-20T04:24:27.775Z,14.23
2023-04-20T04:26:59.350Z,17.88
2023-04-20T04:29:29.974Z,11.93
2023-04-20T04:32:01.636Z,15.60
2023-04-20T04:34:32.177Z,14.23
2023-04-20T04:37:02.709Z,13.20
2023-04-20T04:39:34.851Z,15.23
2023-04-20T04:42:05.610Z,14.73
2023-04-20T04:44:36.490Z,15.90
2023-04-20T04:47:07.232Z,17.13
2023-04-20T04:49:38.171Z,17.27
2023-04-20T04:52:08.635Z,13.38
2023-04-20T04:54:40.784Z,12.30
2023-04-20T04:57:11.316Z,16.13
2023-04-20T04:59:41.798Z,11.48
2023-04-20T05:02:12.296Z,14.30
2023-04-20T05:04:42.909Z,17.23
2023-04-20T05:07:14.908Z,13.35
2023-04-20T05:09:46.934Z,12.52
2023-04-20T05:12:17.517Z,12.80
2023-04-20T05:14:48.102Z,15.50
2023-04-20T05:17:18.589Z,13.05
2023-04-20T05:19:49.042Z,19.13
2023-04-20T05:22:19.596Z,15.63
2023-04-20T05:24:51.838Z,23.55
2023-04-20T05:27:22.393Z,22.17
2023-04-20T05:29:52.826Z,34.08
2023-04-20T05:32:23.302Z,30.95
2023-04-20T05:34:56.971Z,22.15
2023-04-20T05:37:28.261Z,26.08
2023-04-20T05:40:00.387Z,25.67
2023-04-20T05:42:30.894Z,24.08
2023-04-20T05:45:01.554Z,23.10
2023-04-20T05:47:31.972Z,28.48
2023-04-20T05:50:03.248Z,26.20
2023-04-20T05:52:33.750Z,28.75
2023-04-20T05:55:05.856Z,21.88
2023-04-20T05:57:41.736Z,32.58
2023-04-20T06:00:14.067Z,29.23
2023-04-20T06:02:45.192Z,21.30
2023-04-20T06:05:15.884Z,17.80
2023-04-20T06:07:46.499Z,23.88
2023-04-20T06:10:18.931Z,24.98
2023-04-20T06:12:49.406Z,25.63
2023-04-20T06:15:20.039Z,26.98
2023-04-20T06:17:50.653Z,21.73
2023-04-20T06:20:21.573Z,26.10
2023-04-20T06:22:53.245Z,26.52
2023-04-20T06:25:25.834Z,24.48
2023-04-20T06:27:56.378Z,23.55
2023-04-20T06:30:27.124Z,29.75
2023-04-20T06:32:58.004Z,22.95
2023-04-20T06:35:29.735Z,27.05
2023-04-20T06:38:00.404Z,22.02
2023-04-20T06:40:33.010Z,20.25
2023-04-20T06:43:03.639Z,36.22
2023-04-20T06:45:34.349Z,20.35
2023-04-20T06:48:04.929Z,22.95
2023-04-20T06:50:35.543Z,19.77
2023-04-20T06:53:06.696Z,19.15
2023-04-20T06:55:38.763Z,25.15
2023-04-20T06:58:10.007Z,21.73
2023-04-20T07:00:40.524Z,24.77
2023-04-20T07:03:11.168Z,25.17
2023-04-20T07:05:41.805Z,17.60
2023-04-20T07:08:12.210Z,19.35
2023-04-20T07:10:44.281Z,22.58
2023-04-20T07:13:14.732Z,18.33
2023-04-20T07:15:46.086Z,23.38
2023-04-20T07:18:16.600Z,20.50
2023-04-20T07:20:47.106Z,21.25
2023-04-20T07:23:17.569Z,30.83
2023-04-20T07:25:49.759Z,21.67
2023-04-20T07:28:20.258Z,24.00
2023-04-20T07:30:50.850Z,22.15
2023-04-20T07:33:21.935Z,25.23
2023-04-20T07:35:52.312Z,22.92
2023-04-20T07:38:22.739Z,26.27
2023-04-20T07:40:54.722Z,23.73
2023-04-20T07:43:25.154Z,22.02
2023-04-20T07:45:55.738Z,21.25
2023-04-20T07:48:26.458Z,21.70
2023-04-20T07:50:56.930Z,19.00
2023-04-20T07:53:27.342Z,16.27
2023-04-20T07:55:59.419Z,20.85
2023-04-20T07:58:30.002Z,22.15
2023-04-20T08:01:00.574Z,13.65
2023-04-20T08:03:31.405Z,19.75
2023-04-20T08:06:02.553Z,24.02
2023-04-20T08:08:33.043Z,23.25
2023-04-20T08:11:05.276Z,26.10
2023-04-20T08:13:36.075Z,18.70
2023-04-20T08:16:07.477Z,18.50
2023-04-20T08:18:38.180Z,17.85
2023-04-20T08:21:08.709Z,21.05
2023-04-20T08:23:39.155Z,34.53
2023-04-20T08:26:11.220Z,30.77
2023-04-20T08:28:41.631Z,26.08
2023-04-20T08:31:12.215Z,29.67
2023-04-20T08:33:42.719Z,31.00
2023-04-20T08:36:13.196Z,34.95
2023-04-20T08:38:43.800Z,27.20
2023-04-20T08:41:16.123Z,29.98
2023-04-20T08:43:47.559Z,28.73
2023-04-20T08:46:18.166Z,25.02
2023-04-20T08:48:50.681Z,31.13
2023-04-20T08:51:21.206Z,31.42
2023-04-20T08:53:51.820Z,36.33
2023-04-20T08:56:23.847Z,31.40
2023-04-20T08:58:54.386Z,28.23
2023-04-20T09:01:35.552Z,33.05
2023-04-20T09:04:19.172Z,26.45
2023-04-20T09:06:53.901Z,30.67
2023-04-20T09:09:28.092Z,36.38
2023-04-20T09:12:10.590Z,39.95
2023-04-20T09:14:48.482Z,38.42
2023-04-20T09:17:20.041Z,25.73
2023-04-20T09:19:57.205Z,23.48
2023-04-20T09:22:35.160Z,32.05
2023-04-20T09:25:19.983Z,34.30
2023-04-20T09:28:00.748Z,27.58
2023-04-20T09:30:41.801Z,27.52
2023-04-20T09:33:18.304Z,29.85
2023-04-20T09:35:51.880Z,26.33
2023-04-20T09:38:31.829Z,24.60
2023-04-20T09:41:04.293Z,29.60
2023-04-20T09:43:38.079Z,26.05
2023-04-20T09:46:13.370Z,27.13
2023-04-20T09:48:46.509Z,15.63
2023-04-20T09:51:17.981Z,14.57
2023-04-20T09:53:53.367Z,26.40
2023-04-20T09:56:27.045Z,30.63
2023-04-20T09:58:59.881Z,18.40
2023-04-20T10:01:34.640Z,26.45
2023-04-20T10:05:32.624Z,25.42
2023-04-20T10:08:03.696Z,17.65
2023-04-20T10:10:34.567Z,19.38
2023-04-20T10:13:05.331Z,21.90
2023-04-20T10:15:45.225Z,19.45
2023-04-20T10:21:10.265Z,22.52
2023-04-20T10:23:59.923Z,38.42
2023-04-20T10:26:40.223Z,15.25
2023-04-20T10:29:13.344Z,22.02
2023-04-20T10:31:51.908Z,18.20
2023-04-20T10:34:33.826Z,20.05
2023-04-20T10:37:11.882Z,22.40
2023-04-20T10:39:48.336Z,18.63
2023-04-20T10:42:18.921Z,15.02
2023-04-20T10:44:52.715Z,18.58
2023-04-20T10:47:33.379Z,24.05
2023-04-20T10:50:11.842Z,19.80
2023-04-20T10:52:52.434Z,27.80
2023-04-20T10:55:29.296Z,22.98
2023-04-20T10:58:00.576Z,24.70
2023-04-20T11:00:32.383Z,22.33
2023-04-20T11:03:07.341Z,21.88
2023-04-20T11:05:40.784Z,26.17
2023-04-20T11:08:11.416Z,22.45
2023-04-20T11:10:43.638Z,19.40
2023-04-20T11:13:24.247Z,30.73
2023-04-20T11:15:55.004Z,20.02
2023-04-20T11:18:27.318Z,26.30
2023-04-20T11:20:58.583Z,15.85
2023-04-20T11:23:41.259Z,23.95
2023-04-20T11:26:11.969Z,17.08
2023-04-20T11:28:54.511Z,22.27
2023-04-20T11:31:29.895Z,20.77
2023-04-20T11:34:04.822Z,22.73
2023-04-20T11:36:42.605Z,19.33
2023-04-20T11:39:14.663Z,22.67
2023-04-20T11:41:46.124Z,18.25
2023-04-20T11:44:21.684Z,15.80
2023-04-20T11:46:54.968Z,16.45
2023-04-20T11:49:32.147Z,16.65
2023-04-20T11:52:02.966Z,20.08
2023-04-20T11:54:35.878Z,19.40
2023-04-20T11:57:06.528Z,14.85
2023-04-20T11:59:37.686Z,19.02
2023-04-20T12:02:08.545Z,17.90
2023-04-20T12:04:51.389Z,13.18
2023-04-20T12:07:24.628Z,19.67
2023-04-20T12:09:55.229Z,18.23
2023-04-20T12:12:30.265Z,18.23
2023-04-20T12:15:03.016Z,18.15
2023-04-20T12:17:33.699Z,16.38
2023-04-20T12:20:09.636Z,23.90
2023-04-20T12:22:42.418Z,24.13
2023-04-20T12:25:14.661Z,15.90
2023-04-20T12:27:45.375Z,26.63
2023-04-20T12:30:17.603Z,25.98
2023-04-20T12:32:48.119Z,22.02
2023-04-20T12:35:23.458Z,21.25
2023-04-20T12:37:54.576Z,29.88
2023-04-20T12:40:26.038Z,17.65
2023-04-20T12:42:57.312Z,18.85
2023-04-20T12:45:29.181Z,18.00
2023-04-20T12:48:00.721Z,24.17
2023-04-20T12:50:33.586Z,22.58
2023-04-20T12:53:10.585Z,29.63
2023-04-20T12:55:46.846Z,26.23
2023-04-20T12:58:21.664Z,20.88
2023-04-20T13:00:52.297Z,17.10
2023-04-20T13:03:35.068Z,22.15
2023-04-20T13:06:12.960Z,18.67
2023-04-20T13:08:44.969Z,10.13
2023-04-20T13:11:16.919Z,11.45
2023-04-20T13:13:50.372Z,17.27
2023-04-20T13:16:23.974Z,11.30
2023-04-20T13:19:08.696Z,14.80
2023-04-20T13:21:46.406Z,8.93
2023-04-20T13:24:18.419Z,13.40
2023-04-20T13:26:50.297Z,14.43
2023-04-20T13:29:21.797Z,11.38
2023-04-20T13:31:53.452Z,10.57
2023-04-20T13:34:24.953Z,8.55
2023-04-20T13:36:59.333Z,23.88
2023-04-20T13:39:31.267Z,11.35
2023-04-20T13:42:02.816Z,11.75
2023-04-20T13:44:34.572Z,15.10
2023-04-20T13:47:06.484Z,13.32
2023-04-20T13:49:38.048Z,12.98
2023-04-20T13:52:11.497Z,8.73
2023-04-20T13:54:42.977Z,12.93
2023-04-20T13:57:15.231Z,7.65
2023-04-20T13:59:47.006Z,11.68
2023-04-20T14:02:18.590Z,9.85
2023-04-20T14:04:50.119Z,10.63
2023-04-20T14:07:23.320Z,10.77
2023-04-20T14:09:57.275Z,11.90
2023-04-20T14:12:47.871Z,9.38
2023-04-20T14:15:18.460Z,9.55
2023-04-20T14:17:52.235Z,7.25
2023-04-20T14:20:24.148Z,12.10
2023-04-20T14:22:58.449Z,10.43
2023-04-20T14:25:30.877Z,8.45
2023-04-20T14:28:01.305Z,10.43
2023-04-20T14:30:31.956Z,11.40
2023-04-20T14:33:04.711Z,8.45
2023-04-20T14:35:35.879Z,6.63
2023-04-20T14:38:15.573Z,12.00
2023-04-20T14:40:46.216Z,6.95
2023-04-20T14:43:17.103Z,13.02
2023-04-20T14:45:52.235Z,11.25
2023-04-20T14:48:25.006Z,36.33
2023-04-20T14:50:56.615Z,13.75
2023-04-20T14:53:30.106Z,14.00
2023-04-20T14:56:01.633Z,17.00
2023-04-20T14:58:32.326Z,13.63
2023-04-20T15:01:02.769Z,9.95
2023-04-20T15:03:34.045Z,13.73
2023-04-20T15:06:06.209Z,13.23
2023-04-20T15:08:41.174Z,11.60
2023-04-20T15:11:11.623Z,16.20
2023-04-20T15:13:42.130Z,11.15
2023-04-20T15:16:15.592Z,5.97
2023-04-20T15:18:48.251Z,12.80
2023-04-20T15:21:18.777Z,6.75
2023-04-20T15:23:51.741Z,6.53
2023-04-20T15:26:27.748Z,6.38
2023-04-20T15:28:58.516Z,8.75
2023-04-20T15:31:33.350Z,8.05
2023-04-20T15:34:08.579Z,9.20
2023-04-20T15:36:40.301Z,6.78
2023-04-20T15:39:29.671Z,6.55
2023-04-20T15:42:00.456Z,10.65
2023-04-20T15:44:31.528Z,7.93
2023-04-20T15:47:04.003Z,10.73
2023-04-20T15:49:37.106Z,7.10
2023-04-20T15:52:07.841Z,5.25
2023-04-20T15:54:40.780Z,8.68
2023-04-20T15:57:13.137Z,12.55
2023-04-20T15:59:43.642Z,8.45
2023-04-20T16:02:19.946Z,10.18
2023-04-20T16:04:50.440Z,8.32
2023-04-20T16:07:21.051Z,7.85
2023-04-20T16:09:53.156Z,5.53
2023-04-20T16:12:23.744Z,11.13
2023-04-20T16:14:54.434Z,6.93
2023-04-20T16:17:24.968Z,9.88
2023-04-20T16:19:55.418Z,12.13
2023-04-20T16:22:31.593Z,12.65
2023-04-20T16:25:08.109Z,13.35
2023-04-20T16:27:38.862Z,10.93
2023-04-20T16:30:10.768Z,7.78
2023-04-20T16:32:48.789Z,11.85
2023-04-20T16:35:26.992Z,16.52
2023-04-20T16:37:58.480Z,13.35
2023-04-20T16:40:30.543Z,18.17
2023-04-20T16:43:05.568Z,10.90
2023-04-20T16:45:37.029Z,18.45
2023-04-20T16:48:08.878Z,13.38
2023-04-20T16:50:40.912Z,12.43
2023-04-20T16:53:18.575Z,12.18
2023-04-20T16:55:50.656Z,12.68
2023-04-20T16:58:21.228Z,16.95
2023-04-20T17:00:51.711Z,11.80
2023-04-20T17:03:22.448Z,11.25
2023-04-20T17:05:57.606Z,15.10
2023-04-20T17:08:29.728Z,14.35
2023-04-20T17:11:02.635Z,13.02
2023-04-20T17:13:36.357Z,10.70
2023-04-20T17:16:07.240Z,10.57
2023-04-20T17:18:41.700Z,8.23
2023-04-20T17:21:12.423Z,12.55
2023-04-20T17:23:46.917Z,10.07
2023-04-20T17:26:18.926Z,13.30
2023-04-20T17:28:49.477Z,7.25
2023-04-20T17:31:21.518Z,12.15
2023-04-20T17:33:54.216Z,13.38
2023-04-20T17:36:24.723Z,13.57
2023-04-20T17:38:57.031Z,7.20
2023-04-20T17:41:32.938Z,14.55
2023-04-20T17:44:03.293Z,8.60
2023-04-20T17:46:40.019Z,13.05
2023-04-20T17:49:10.539Z,7.30
2023-04-20T17:51:40.847Z,9.90
2023-04-20T17:54:12.128Z,6.72
2023-04-20T17:56:44.213Z,10.57
2023-04-20T17:59:14.591Z,10.77
2023-04-20T18:01:48.047Z,9.40
2023-04-20T18:04:19.016Z,13.15
2023-04-20T18:06:55.040Z,10.95
2023-04-20T18:09:28.524Z,19.63
2023-04-20T18:12:00.692Z,13.50
2023-04-20T18:14:31.069Z,10.48
2023-04-20T18:17:01.542Z,6.68
2023-04-20T18:19:36.509Z,9.25
2023-04-20T18:22:07.274Z,9.13
2023-04-20T18:24:43.763Z,11.98
2023-04-20T18:27:17.357Z,7.60
2023-04-20T18:29:52.418Z,12.38
2023-04-20T18:32:25.076Z,9.52
2023-04-20T18:34:55.518Z,12.68
2023-04-20T18:37:26.014Z,13.50
2023-04-20T18:39:59.350Z,5.88
2023-04-20T18:42:31.379Z,10.13
2023-04-20T18:45:09.684Z,7.75
2023-04-20T18:47:40.234Z,13.70
2023-04-20T18:50:11.594Z,17.83
2023-04-20T18:52:44.898Z,7.47
2023-04-20T18:55:19.862Z,9.70
2023-04-20T18:57:56.974Z,6.13
2023-04-20T19:00:29.951Z,6.35
2023-04-20T19:03:00.596Z,10.50
2023-04-20T19:05:36.773Z,5.28
2023-04-20T19:08:07.269Z,6.28
2023-04-20T19:10:41.592Z,9.68
2023-04-20T19:13:18.424Z,9.55
2023-04-20T19:15:48.902Z,6.65
2023-04-20T19:18:19.681Z,9.13
2023-04-20T19:20:50.084Z,10.10
2023-04-20T19:23:22.473Z,7.55
2023-04-20T19:25:55.201Z,14.55
2023-04-20T19:28:27.303Z,5.95
2023-04-20T19:30:57.831Z,12.40
2023-04-20T19:33:34.261Z,6.00
2023-04-20T19:36:07.081Z,10.25
2023-04-20T19:38:39.474Z,10.73
2023-04-20T19:41:10.036Z,13.77
2023-04-20T19:43:46.241Z,11.63
2023-04-20T19:46:17.161Z,14.60
2023-04-20T19:48:47.953Z,26.52
2023-04-20T19:51:23.093Z,13.93
2023-04-20T19:53:55.807Z,12.18
2023-04-20T19:56:29.384Z,6.47
2023-04-20T19:59:03.372Z,8.50
2023-04-20T20:01:33.879Z,10.48
2023-04-20T20:04:04.598Z,13.25
2023-04-20T20:06:35.132Z,12.30
2023-04-20T20:09:06.979Z,11.35
2023-04-20T20:11:37.338Z,12.48
2023-04-20T20:14:09.453Z,8.80
2023-04-20T20:16:39.774Z,9.55
2023-04-20T20:19:10.130Z,6.70
2023-04-20T20:21:40.616Z,11.00
2023-04-20T20:24:11.112Z,8.68
2023-04-20T20:26:41.512Z,12.68
2023-04-20T20:29:13.570Z,11.65
2023-04-20T20:31:44.044Z,15.30
2023-04-20T20:34:14.643Z,10.20
2023-04-20T20:36:47.827Z,14.07
2023-04-20T20:39:18.657Z,13.65
2023-04-20T20:41:51.986Z,16.45
2023-04-20T20:44:24.129Z,13.38
2023-04-20T20:46:54.652Z,16.90
2023-04-20T20:49:25.122Z,8.55
2023-04-20T20:51:55.541Z,12.32
2023-04-20T20:54:25.966Z,10.88
2023-04-20T20:56:56.379Z,16.27
2023-04-20T20:59:28.361Z,10.52
2023-04-20T21:01:58.883Z,13.63
2023-04-20T21:04:30.703Z,16.98
2023-04-20T21:07:01.360Z,13.32
2023-04-20T21:09:31.903Z,11.73
2023-04-20T21:12:03.198Z,4.70
2023-04-20T21:14:35.544Z,13.57
2023-04-20T21:17:06.095Z,8.25
2023-04-20T21:19:36.586Z,12.55
2023-04-20T21:22:07.212Z,11.50
2023-04-20T21:24:38.767Z,10.93
2023-04-20T21:27:09.293Z,17.25
2023-04-20T21:29:41.427Z,8.82
2023-04-20T21:32:12.098Z,6.22
2023-04-20T21:34:42.594Z,7.93
2023-04-20T21:37:16.488Z,6.63
2023-04-20T21:39:46.998Z,9.30
2023-04-20T21:42:17.530Z,8.95
2023-04-20T21:44:49.624Z,10.02
2023-04-20T21:47:20.939Z,6.30
2023-04-20T21:49:51.381Z,6.82
2023-04-20T21:52:21.936Z,8.65
2023-04-20T21:54:52.618Z,7.30
2023-04-20T21:57:23.171Z,5.18
2023-04-20T21:59:55.292Z,10.75
2023-04-20T22:02:25.873Z,8.77
2023-04-20T22:04:56.725Z,8.98
2023-04-20T22:07:28.515Z,10.98
2023-04-20T22:09:58.979Z,10.20
2023-04-20T22:12:39.455Z,8.70
2023-04-20T22:15:15.919Z,11.13
2023-04-20T22:17:47.732Z,14.85
2023-04-20T22:20:20.206Z,7.28
2023-04-20T22:22:50.714Z,9.27
2023-04-20T22:25:21.450Z,6.30
2023-04-20T22:27:52.000Z,10.70
2023-04-20T22:30:24.106Z,11.05
2023-04-20T22:32:54.629Z,6.65
2023-04-20T22:35:25.145Z,5.57
2023-04-20T22:37:55.830Z,7.95
2023-04-20T22:40:26.517Z,6.20
2023-04-20T22:42:56.892Z,6.00
2023-04-20T22:45:29.108Z,7.55
2023-04-20T22:47:59.848Z,9.35
2023-04-20T22:50:30.563Z,8.57
2023-04-20T22:53:03.858Z,8.68
2023-04-20T22:55:34.538Z,9.93
2023-04-20T22:58:17.074Z,9.23
2023-04-20T23:00:49.328Z,3.95
2023-04-20T23:03:19.928Z,6.05
2023-04-20T23:05:50.759Z,10.38
2023-04-20T23:08:21.452Z,13.90
2023-04-20T23:10:52.114Z,6.07
2023-04-20T23:13:22.928Z,6.38
2023-04-20T23:15:55.199Z,6.30
2023-04-20T23:18:25.713Z,4.55
2023-04-20T23:20:56.166Z,14.07
2023-04-20T23:23:26.679Z,6.30
2023-04-20T23:25:57.111Z,5.82
2023-04-20T23:28:27.548Z,5.43
2023-04-20T23:30:59.586Z,7.38
2023-04-20T23:33:29.961Z,8.23
2023-04-20T23:36:01.728Z,7.82
2023-04-20T23:38:32.248Z,8.27
2023-04-20T23:41:02.780Z,5.05
2023-04-20T23:43:33.214Z,10.05
2023-04-20T23:46:05.475Z,5.82
2023-04-20T23:48:36.426Z,8.32
2023-04-20T23:51:07.317Z,12.43
2023-04-20T23:53:38.876Z,7.82
2023-04-20T23:56:10.126Z,3.72
2023-04-20T23:58:40.590Z,5.45
